Meath Environmental Platform

Observations for Trim Patrick St

Time AQI Temp °C Hum % Pres Pa CO μg/m³ H₂S μg/m³ NO μg/m³ NO₂ μg/m³ O₃ μg/m³ SO₂ μg/m³ PM1 μg/m³ PM2.5 μg/m³ PM10 μg/m³
Monday 3 August 2026
15:47 3 30.5 35 69,262 0 7.68 1.38 19.42 126.46 13.41 5.43 11.36 12.49
15:44 3 30.8 34 69,282 0 3.95 1.35 22.87 149.49 13.21 5.43 11.41 12.55
15:41 3 31.1 34 69,280 0 1.13 1.28 24.96 120.1 13.41 5.43 12.18 13.39
15:40 3 31.2 33 69,284 0 0 1.31 20.9 140.15 12.85 4.57 10.65 11.72
15:39 3 31.2 34 69,280 0 11.09 1.25 25.09 178.28 14.88 4.57 10.65 11.71
15:38 3 31.4 33 69,306 0 0 1.25 25.58 140.6 13 4.57 10.68 11.75
15:37 3 31.4 33 69,310 0 0 1.29 17.48 115.17 13.3 5.43 12.3 13.53
15:36 3 31.5 33 69,314 0 1.31 1.3 23.9 167.27 14.19 4.57 11.47 12.62
15:32 3 31.9 33 69,339 0 0 1.61 20.52 113.86 11.7 4.57 10.65 11.72
15:31 3 32 34 69,349 0 0 1.65 19.51 98.51 14.26 4.57 10.63 11.69
15:30 3 32 33 69,334 0 0 1.57 23.09 183.65 14.27 6.29 12.3 13.53
15:29 3 32.1 33 69,341 0 0 1.64 17.69 159.33 14.28 4.57 10.65 11.72
15:28 3 32.1 32 69,351 0 0 1.46 16.25 99.56 12.1 5.43 12.39 13.63
15:27 3 32.2 33 69,361 0 0 1.59 18.42 110.51 15.39 4.57 11.49 12.64
15:26 3 32.2 32 69,347 0 0 1.55 25.35 115.36 12.41 5.43 11.58 12.74
15:25 3 32.2 32 69,330 0 0 1.54 19.81 143.75 13.47 5.43 11.56 12.72
15:24 3 32.3 32 69,332 0 0 1.54 17.04 125.91 14.32 5.43 11.56 12.71
15:23 3 32.3 33 69,334 0 0 1.64 15.53 76.93 11.83 5.43 12.3 13.53
15:22 3 32.3 34 69,339 0 0 1.63 26.9 111.69 13.67 6.29 12.24 13.47
15:21 3 32.3 32 69,345 0 0 1.47 23.45 133.2 14.52 5.43 11.56 12.71